首页
METAR-TAF:

METAR-TAF

机场 :

Gage, 奧克拉荷馬州, 美国

纬度: 36-17-48N, 经度: 099-46-08W, 海拔: 677米

当前天气观测

该预报发布于29分钟前的16:53 UTC
风速19节,风向,有时为28节阵风
温度 31°C
湿度 46%
气压 1013 hPa
能見度: 16.1公里
天空无云

METAR: KGAG 151653Z AUTO 19019G28KT 10SM CLR 31/18 A2992 RMK AO2 PK WND 19028/1650 RAB11E22 SLP101 P0000 T03060178

时间: 12:22 (17:22 UTC)


TAF: 丢失

超过4000个机场的气象观测和天气预报(METAR&TAF报告)。

可查询的气象台以黄色和红色小点在地图上表示。

将鼠标移到小点上方,可查看气象台名称。

然后点击查看天气观测和预报。

如需切换地图:点击带黑十字的绿色按钮放大地图;点击带横线的绿色按钮缩小地图;或者点击绿色箭头查看邻近地区的地图。


METAR-TAF: